This is the latest recevied weather packets stored in our database for station/object OE6CUD-6. If no packets are shown the sender has not sent any weather packets the latest 10 day(s).
| Time | Temp. | Humidity | Pressure | Rain* | Wind** | Luminosity | Snow |
|---|---|---|---|---|---|---|---|
| 1777670740 | 10° C | 79% | 1024.9 hPa | 0 mm | - | 0 W/m² | - |
| 1777670434 | 10.56° C | 78% | 1024.9 hPa | 0 mm | - | 0 W/m² | - |
| 1777670131 | 10.56° C | 78% | 1025 hPa | 0 mm | - | 0 W/m² | - |
| 1777669821 | 10.56° C | 77% | 1025.1 hPa | 0 mm | - | 0 W/m² | - |
| 1777669204 | 10.56° C | 79% | 1025.2 hPa | 0 mm | - | 0 W/m² | - |
| 1777667682 | 11.11° C | 76% | 1025.1 hPa | 0 mm | - | 0 W/m² | - |
| 1777663437 | 13.33° C | 68% | 1025.3 hPa | 0 mm | - | 0 W/m² | - |
| 1777662511 | 13.33° C | 67% | 1025.1 hPa | 0 mm | - | 0 W/m² | - |
| 1777660108 | 15° C | 59% | 1025.2 hPa | 0 mm | - | 0 W/m² | - |
| 1777659349 | 16.11° C | 57% | 1025.1 hPa | 0 mm | - | 0 W/m² | - |
| 1777656783 | 17.22° C | 53% | 1024.7 hPa | 0 mm | - | 14 W/m² | - |
| 1777656629 | 17.78° C | 52% | 1024.7 hPa | 0 mm | - | 14 W/m² | - |
| 1777654684 | 18.89° C | 50% | 1024.7 hPa | 0 mm | - | 120 W/m² | - |
| 1777653482 | 19.44° C | 48% | 1024.8 hPa | 0 mm | - | 185 W/m² | - |
| 1777652565 | 19.44° C | 49% | 1024.7 hPa | 0 mm | - | 232 W/m² | - |
| 1777651353 | 19.44° C | 47% | 1024.8 hPa | 0 mm | - | 288 W/m² | - |
| 1777650151 | 20° C | 47% | 1024.9 hPa | 0 mm | - | 345 W/m² | - |
| 1777648050 | 20.56° C | 46% | 1025.2 hPa | 0 mm | - | 439 W/m² | - |
| 1777647451 | 20° C | 49% | 1025.2 hPa | 0 mm | - | 468 W/m² | - |
| 1777647444 | 20.56° C | 46% | 1025.3 hPa | 0 mm | - | 482 W/m² | - |
| 1777646253 | 21.11° C | 46% | 1025.7 hPa | 0 mm | - | 520 W/m² | - |
| 1777637827 | 20.56° C | 45% | 1027.2 hPa | 0 mm | - | 928 W/m² | - |
| 1777637087 | 19.44° C | 47% | 1027.1 hPa | 0 mm | - | 898 W/m² | - |
| 1777636303 | 18.89° C | 49% | 1027.1 hPa | 0 mm | - | 874 W/m² | - |
| 1777634637 | 18.89° C | 47% | 1027.3 hPa | 0 mm | - | 325 W/m² | - |
* Rain latest hour (hover to see other rain measurements)
** Current wind speed in m/s (hover to see current wind gust speed)